Alliance Municipal Airport

Airport
ICAO code: 
KAIA
Summary
ICAO Region: 
NAM
Territory: 
Location: 
Alliance, Nebraska,
Coordinates: 
Aerial View: 
42° 3' 6.001" N, 102° 48' 24.001" W
Airport CFIT: 
Altimeter Temperature Error Correction
Airport RE: 
Hot and High Operations
Metar
Observation
KAIA 271953Z AUTO 33014KT 10SM CLR 12/M06 A3018 RMK AO2 SLP228 T01171056
Station
Alliance, Alliance Municipal Airport
Date/Time
2021-11-27 19:53:00
Wind direction
330°
Wind speed
14 kts
Lowest cloud amount
n/a
Temperature
11.7°C
Dew point
-5.6°C
Humidity
29%
Weather condition
n/a

Description

Alliance Municipal Airport is a public use airport located 6 km) southeast of the central business district of Alliance, a city in Box Butte County, Nebraska.

Climatology

Semi-arid climate (Köppen climate classification BSk). - Hot, sometimes extremely hot summers and cold, sometimes very cold winters. Some snowfall during the winter. Areas featuring cold semi-arid climates are sometimes subject to major temperature swings during a 24 hour period..

Runways

Designator Length Width Surface Rops
8/26 1890 23 ASP No/No
17/35 1924 23 ASP No/No
12/30 2805 46 ASP No/No
Airport map: 
Aerial View: 

SKYbrary Partners:

Safety knowledge contributed by: